• Join FlightAware (Why Join?)
  • Login
  • US Flag 
04:29AM EDT


 

Airport Tracker/Info


-or-


 

Live Flight TrackerFlight Track Log ✈ ASQ5685 ✈ 30-Apr-2013 ✈ KBTV - KIAD

Flight Track Log - Related Links

Times and Time Zones

All times are in EDT time to prevent confusion due to time zone crossing. See the ASQ5685 flight status page for this flight to view local times or setup timezone preferences in your user account.

Time Position Orientation Groundspeed Altitude Reporting Facility
EDT Latitude Longitude Course Direction KTS MPH feet Rate Location/Type
02:42PM 44.0924 -73.2897 196° South  Level FlightAware Approximate
02:42PM 44.3028 -73.1653 195° South 231 266 8,400  Level Boston Center
02:43PM 43.9991 -73.3271 196° South  Level FlightAware Approximate
02:43PM 44.2233 -73.1992 197° South 265 305 10,900  Level Boston Center
02:44PM 43.9057 -73.3644 196° South  Level FlightAware Approximate
02:44PM 44.1439 -73.2328 197° South 291 335 13,300  Level Boston Center
02:45PM 43.8119 -73.3993 195° South  Level FlightAware Approximate
02:45PM 44.0458 -73.2719 196° South 304 350 16,000  Level Boston Center
02:46PM 43.7180 -73.4339 195° South  Level FlightAware Approximate
02:46PM 43.9642 -73.3083 198° South 304 350 17,800  Level Boston Center
02:47PM 43.6242 -73.4684 195° South  Level FlightAware Approximate
02:47PM 43.8806 -73.3444 197° South 310 357 19,400  Level Boston Center
02:48PM 43.7928 -73.3778 195° South 320 368 20,800 1,200 Climbing Boston Center
02:49PM 43.7175 -73.4111 198° South 341 392 21,900 1,320 Climbing Boston Center
02:50PM 43.6131 -73.4522 196° South 352 405 23,500 1,020 Climbing Boston Center
02:51PM 43.5147 -73.4908 196° South 363 418 24,000 240 Climbing Boston Center
02:52PM 43.4100 -73.5347 197° South 375 432 24,000 180 Level Boston Center
02:53PM 43.3033 -73.5783 197° South 387 445 24,400 780 Climbing Boston Center
02:54PM 43.1989 -73.6192 196° South 397 457 25,600 1,200 Climbing Boston Center
02:55PM 43.0817 -73.6681 197° South 402 463 26,800 1,200 Climbing Boston Center
02:56PM 42.9769 -73.7114 197° South 402 463 28,000 1,200 Climbing Boston Center
02:57PM 42.8764 -73.7547 198° South 402 463 29,200 960 Climbing Boston Center
02:58PM 42.7717 -73.7950 196° South 397 457 30,000 360 Climbing Boston Center
02:59PM 42.6669 -73.8406 198° South 397 457 30,000  Level Boston Center
03:00PM 42.5661 -73.8892 200° South 397 457 30,000  Level Boston Center
03:01PM 42.4656 -73.9344 198° South 392 451 30,000  Level Boston Center
03:02PM 42.3650 -73.9800 199° South 386 444 30,000  Level Boston Center
03:03PM 42.2644 -74.0225 197° South 386 444 30,000  Level Boston Center
03:04PM 42.1661 -74.0422 188° South 386 444 30,000  Level Boston Center
03:05PM 42.0597 -74.0481 182° South 386 444 30,000  Level Boston Center
03:06PM 41.9592 -74.0900 197° South 386 444 30,000  Level Boston Center
03:07PM 41.8603 -74.1378 200° South 386 444 30,000  Level Boston Center
03:09PM 41.6986 -74.2133 199° South 387 445 30,000  Level New York Center
03:10PM 41.5972 -74.2606 199° South 387 445 30,000  Level New York Center
03:11PM 41.5064 -74.3058 200° South 376 433 30,000  Level New York Center
03:12PM 41.4050 -74.3558 200° South 376 433 30,000  Level New York Center
03:13PM 41.2911 -74.4047 198° South 384 442 30,000  Level New York Center
03:14PM 41.1939 -74.4519 200° South 389 448 30,000 -480 Level New York Center
03:15PM 41.0944 -74.5017 201° Southwest 389 448 29,100 -960 Descending New York Center
03:16PM 40.9908 -74.5481 199° South 389 448 28,200 -600 Descending New York Center
03:17PM 40.8989 -74.6200 211° Southwest 395 455 28,000 -120 Descending New York Center
03:18PM 40.8469 -74.7403 240° Southwest 364 419 28,000  Level New York Center
03:19PM 40.7931 -74.8525 238° Southwest 370 426 28,000  Level New York Center
03:20PM 40.7411 -74.9697 240° Southwest 370 426 28,000  Level New York Center
03:21PM 40.6953 -75.0875 243° Southwest 370 426 28,000 -180 Level New York Center
03:22PM 40.6572 -75.2136 248° West 370 426 27,700 -600 Descending New York Center
03:23PM 40.6169 -75.3422 248° West 376 433 26,900 -840 Descending New York Center
03:24PM 40.5661 -75.4644 241° Southwest 382 440 26,100 -840 Descending New York Center
03:25PM 40.5053 -75.5806 235° Southwest 387 445 25,300 -900 Descending New York Center
03:26PM 40.4422 -75.6961 234° Southwest 392 451 24,400 -1,260 Descending New York Center
03:27PM 40.3831 -75.8092 236° Southwest 392 451 22,900 -1,380 Descending New York Center
03:28PM 40.3400 -75.8903 235° Southwest 376 433 21,700 -1,440 Descending New York Center
03:29PM 40.2808 -76.0031 236° Southwest 357 411 20,100 -1,620 Descending New York Center
03:30PM 40.2369 -76.1003 239° Southwest 322 371 18,500 -1,500 Descending New York Center
03:31PM 40.1886 -76.2025 238° Southwest 314 361 17,200 -1,380 Descending New York Center
03:32PM 40.1425 -76.2967 237° Southwest 309 356 15,700 -900 Descending New York Center
03:33PM 40.0500 -76.4833 237° Southwest 341 392 15,000 -300 Descending Potomac TRACON
03:34PM 40.0167 -76.5667 242° Southwest 341 392 15,000  Level Potomac TRACON
03:35PM 39.9500 -76.6833 233° Southwest 339 390 15,000  Level Potomac TRACON
03:36PM 39.9000 -76.7833 237° Southwest 339 390 15,000  Level Potomac TRACON
03:37PM 39.8667 -76.8667 242° Southwest 336 387 15,000 -480 Level Potomac TRACON
03:38PM 39.8000 -76.9833 233° Southwest 302 348 14,100 -1,020 Descending Potomac TRACON
03:39PM 39.7667 -77.0667 243° Southwest 300 345 12,900 -1,200 Descending Potomac TRACON
03:40PM 39.7167 -77.1500 232° Southwest 303 349 11,900 -1,200 Descending Potomac TRACON
03:41PM 39.6667 -77.2500 237° Southwest 290 334 10,500 -1,140 Descending Potomac TRACON
03:42PM 39.6333 -77.3333 243° Southwest 287 330 9,700 -1,020 Descending Potomac TRACON
03:43PM 39.6000 -77.4167 243° Southwest 289 333 8,600 -960 Descending Potomac TRACON
03:44PM 39.5500 -77.4833 226° Southwest 238 274 7,800 -900 Descending Potomac TRACON
03:45PM 39.5000 -77.4667 166° South 201 231 6,800 -1,560 Descending Potomac TRACON
03:46PM 39.4667 -77.4000 123° Southeast 198 228 4,900 -1,440 Descending Potomac TRACON
03:47PM 39.4167 -77.4167 194° South 207 238 4,000 -480 Descending Potomac TRACON
03:48PM 39.3667 -77.4333 194° South 199 229 4,000 -360 Level Potomac TRACON
03:49PM 39.3000 -77.4333 180° South 192 221 3,300 -540 Descending Potomac TRACON
03:50PM 39.2500 -77.4333 180° South 195 224 3,000 -120 Descending Potomac TRACON
03:51PM 39.2000 -77.4333 180° South 178 205 3,100  Climbing Potomac TRACON
03:52PM 39.1500 -77.4333 180° South 173 199 3,000 -60 Descending Potomac TRACON
03:53PM 39.1000 -77.4333 180° South 177 204 3,000  Level Potomac TRACON